createdAt,value
2017-11-17T00:00:37.841Z,5.90
2017-11-17T00:03:07.469Z,5.80
2017-11-17T00:05:37.039Z,5.70
2017-11-17T00:08:06.075Z,5.70
2017-11-17T00:10:35.846Z,5.70
2017-11-17T00:13:04.662Z,5.70
2017-11-17T00:15:35.230Z,5.70
2017-11-17T00:18:04.033Z,5.70
2017-11-17T00:20:32.891Z,5.70
2017-11-17T00:23:02.454Z,5.70
2017-11-17T00:25:31.292Z,5.70
2017-11-17T00:28:00.097Z,5.70
2017-11-17T00:30:28.909Z,5.70
2017-11-17T00:32:57.713Z,5.60
2017-11-17T00:35:26.514Z,5.60
2017-11-17T00:37:55.366Z,5.40
2017-11-17T00:40:24.580Z,5.30
2017-11-17T00:42:53.377Z,5.30
2017-11-17T00:45:22.226Z,5.10
2017-11-17T00:47:51.038Z,5.00
2017-11-17T00:50:19.887Z,4.90
2017-11-17T00:52:49.450Z,4.80
2017-11-17T00:55:18.303Z,4.80
2017-11-17T00:57:47.123Z,4.70
2017-11-17T01:00:15.932Z,4.70
2017-11-17T01:02:44.778Z,4.70
2017-11-17T01:05:14.251Z,4.60
2017-11-17T01:07:43.855Z,4.60
2017-11-17T01:10:13.438Z,4.60
2017-11-17T01:12:42.274Z,4.60
2017-11-17T01:15:11.854Z,4.50
2017-11-17T01:17:40.681Z,4.50
2017-11-17T01:20:09.503Z,4.50
2017-11-17T01:22:38.314Z,4.40
2017-11-17T01:25:11.440Z,4.40
2017-11-17T01:27:41.563Z,4.50
2017-11-17T01:30:11.188Z,4.50
2017-11-17T01:32:40.772Z,4.50
2017-11-17T01:35:10.390Z,4.50
2017-11-17T01:37:39.949Z,4.40
2017-11-17T01:40:08.753Z,4.40
2017-11-17T01:42:37.589Z,4.50
2017-11-17T01:45:06.410Z,4.50
2017-11-17T01:47:35.283Z,4.40
2017-11-17T01:50:04.103Z,4.50
2017-11-17T01:52:32.908Z,4.50
2017-11-17T01:55:02.514Z,4.40
2017-11-17T01:57:31.047Z,4.50
2017-11-17T02:00:00.173Z,4.40
2017-11-17T02:02:29.009Z,4.40
2017-11-17T02:04:59.222Z,4.40
2017-11-17T02:07:28.022Z,4.40
2017-11-17T02:10:04.611Z,4.50
2017-11-17T02:12:33.423Z,4.50
2017-11-17T02:15:02.277Z,4.50
2017-11-17T02:17:31.719Z,4.50
2017-11-17T02:20:00.223Z,4.50
2017-11-17T02:22:28.790Z,4.50
2017-11-17T02:24:56.975Z,4.40
2017-11-17T02:27:25.544Z,4.50
2017-11-17T02:29:53.723Z,4.40
2017-11-17T02:32:22.284Z,4.40
2017-11-17T02:34:51.095Z,4.40
2017-11-17T02:37:19.699Z,4.40
2017-11-17T02:39:48.583Z,4.50
2017-11-17T02:42:17.120Z,4.50
2017-11-17T02:44:46.747Z,4.50
2017-11-17T02:47:14.943Z,4.50
2017-11-17T02:49:43.910Z,4.60
2017-11-17T02:52:12.099Z,4.60
2017-11-17T02:54:40.344Z,4.60
2017-11-17T02:57:09.635Z,4.70
2017-11-17T02:59:38.907Z,4.70
2017-11-17T03:02:07.763Z,4.70
2017-11-17T03:04:36.551Z,4.80
2017-11-17T03:07:05.107Z,4.80
2017-11-17T03:09:34.699Z,4.90
2017-11-17T03:12:03.237Z,4.80
2017-11-17T03:14:32.041Z,4.90
2017-11-17T03:17:00.887Z,4.90
2017-11-17T03:19:30.491Z,4.90
2017-11-17T03:22:00.087Z,4.90
2017-11-17T03:24:28.923Z,4.90
2017-11-17T03:26:57.099Z,4.90
2017-11-17T03:29:25.323Z,5.00
2017-11-17T03:31:53.900Z,5.10
2017-11-17T03:34:22.763Z,5.10
2017-11-17T03:36:51.588Z,5.10
2017-11-17T03:39:20.426Z,5.10
2017-11-17T03:41:48.915Z,5.10
2017-11-17T03:44:17.426Z,5.20
2017-11-17T03:46:45.662Z,5.20
2017-11-17T03:49:14.519Z,5.20
2017-11-17T03:51:44.148Z,5.30
2017-11-17T03:54:12.960Z,5.20
2017-11-17T03:56:41.810Z,5.30
2017-11-17T03:59:12.766Z,5.30
2017-11-17T04:01:41.611Z,5.30
2017-11-17T04:04:10.421Z,5.40
2017-11-17T04:06:39.232Z,5.40
2017-11-17T04:09:08.110Z,5.40
2017-11-17T04:11:37.698Z,5.40
2017-11-17T04:14:06.575Z,5.40
2017-11-17T04:16:35.412Z,5.50
2017-11-17T04:19:04.304Z,5.60
2017-11-17T04:21:33.491Z,5.60
2017-11-17T04:24:03.126Z,5.70
2017-11-17T04:26:32.860Z,5.70
2017-11-17T04:29:01.692Z,5.70
2017-11-17T04:31:30.539Z,5.70
2017-11-17T04:33:59.363Z,5.70
2017-11-17T04:36:28.222Z,5.70
2017-11-17T04:38:57.028Z,5.80
2017-11-17T04:41:26.134Z,5.80
2017-11-17T04:43:54.954Z,5.80
2017-11-17T04:46:24.595Z,5.80
2017-11-17T04:48:53.451Z,5.80
2017-11-17T04:51:23.015Z,5.90
2017-11-17T04:53:51.867Z,5.90
2017-11-17T04:56:20.704Z,5.90
2017-11-17T04:58:49.612Z,5.90
2017-11-17T05:01:18.428Z,5.90
2017-11-17T05:03:48.051Z,6.00
2017-11-17T05:06:16.850Z,5.90
2017-11-17T05:08:45.659Z,6.00
2017-11-17T05:11:14.486Z,6.00
2017-11-17T05:13:44.054Z,6.00
2017-11-17T05:16:12.905Z,6.00
2017-11-17T05:18:41.726Z,6.00
2017-11-17T05:21:10.546Z,6.00
2017-11-17T05:23:39.351Z,6.00
2017-11-17T05:26:08.167Z,6.00
2017-11-17T05:28:36.974Z,6.00
2017-11-17T05:31:05.776Z,6.00
2017-11-17T05:33:34.658Z,6.00
2017-11-17T05:36:03.464Z,6.00
2017-11-17T05:38:32.329Z,6.00
2017-11-17T05:41:01.896Z,6.00
2017-11-17T05:43:30.700Z,6.00
2017-11-17T05:48:37.162Z,5.90
2017-11-17T05:51:06.056Z,6.00
2017-11-17T05:53:35.642Z,5.90
2017-11-17T05:56:04.450Z,6.00
2017-11-17T05:58:34.003Z,6.00
2017-11-17T06:01:02.696Z,6.00
2017-11-17T06:03:31.499Z,5.90
2017-11-17T06:06:00.308Z,5.90
2017-11-17T06:08:29.112Z,5.90
2017-11-17T06:10:57.920Z,5.90
2017-11-17T06:13:26.715Z,5.90
2017-11-17T06:15:55.521Z,6.00
2017-11-17T06:18:25.085Z,6.00
2017-11-17T06:20:53.927Z,6.00
2017-11-17T06:23:24.442Z,6.00
2017-11-17T06:25:54.009Z,6.00
2017-11-17T06:28:22.860Z,6.00
2017-11-17T06:30:51.669Z,6.00
2017-11-17T06:33:20.520Z,6.00
2017-11-17T06:35:50.107Z,6.00
2017-11-17T06:38:18.939Z,6.00
2017-11-17T06:40:48.504Z,6.00
2017-11-17T06:43:17.344Z,6.00
2017-11-17T06:45:46.139Z,6.10
2017-11-17T06:48:14.939Z,6.00
2017-11-17T06:50:43.787Z,6.00
2017-11-17T06:53:13.346Z,6.00
2017-11-17T06:55:42.176Z,6.00
2017-11-17T06:58:13.695Z,6.00
2017-11-17T07:00:42.579Z,6.00
2017-11-17T07:03:11.386Z,6.10
2017-11-17T07:05:40.194Z,6.10
2017-11-17T07:08:09.043Z,6.10
2017-11-17T07:10:37.856Z,6.00
2017-11-17T07:13:06.691Z,6.00
2017-11-17T07:15:36.261Z,6.00
2017-11-17T07:18:05.110Z,6.00
2017-11-17T07:20:33.910Z,6.00
2017-11-17T07:23:02.718Z,6.00
2017-11-17T07:25:39.029Z,6.10
2017-11-17T07:28:17.278Z,6.10
2017-11-17T07:30:47.459Z,6.10
2017-11-17T07:33:17.350Z,6.10
2017-11-17T07:35:46.142Z,6.10
2017-11-17T07:38:14.978Z,6.10
2017-11-17T07:40:43.786Z,6.10
2017-11-17T07:43:12.632Z,6.10
2017-11-17T07:45:42.200Z,6.10
2017-11-17T07:48:11.040Z,6.10
2017-11-17T07:50:39.851Z,6.10
2017-11-17T07:53:08.655Z,6.10
2017-11-17T07:55:37.497Z,6.10
2017-11-17T07:58:07.068Z,6.10
2017-11-17T08:00:35.914Z,6.10
2017-11-17T08:03:04.723Z,6.10
2017-11-17T08:05:33.537Z,6.10
2017-11-17T08:08:02.342Z,6.10
2017-11-17T08:10:31.179Z,6.10
2017-11-17T08:12:59.976Z,6.10
2017-11-17T08:15:28.779Z,6.10
2017-11-17T08:18:08.741Z,6.20
2017-11-17T08:20:37.258Z,6.10
2017-11-17T08:23:06.818Z,6.10
2017-11-17T08:25:35.608Z,6.20
2017-11-17T08:28:04.479Z,6.20
2017-11-17T08:30:33.295Z,6.20
2017-11-17T08:33:02.091Z,6.20
2017-11-17T08:35:30.931Z,6.20
2017-11-17T08:38:00.531Z,6.30
2017-11-17T08:40:30.147Z,6.30
2017-11-17T08:42:59.715Z,6.30
2017-11-17T08:45:28.528Z,6.30
2017-11-17T08:47:57.334Z,6.30
2017-11-17T08:50:26.622Z,6.40
2017-11-17T08:52:55.460Z,6.40
2017-11-17T08:55:24.279Z,6.40
2017-11-17T08:57:53.119Z,6.50
2017-11-17T09:00:22.389Z,6.40
2017-11-17T09:02:51.980Z,6.50
2017-11-17T09:05:20.810Z,6.50
2017-11-17T09:07:50.366Z,6.50
2017-11-17T09:10:19.215Z,6.50
2017-11-17T09:12:48.012Z,6.50
2017-11-17T09:15:17.863Z,6.50
2017-11-17T09:17:46.658Z,6.50
2017-11-17T09:20:15.453Z,6.50
2017-11-17T09:22:44.305Z,6.60
2017-11-17T09:25:13.101Z,6.60
2017-11-17T09:27:42.211Z,6.70
2017-11-17T09:30:10.698Z,6.70
2017-11-17T09:32:39.767Z,6.70
2017-11-17T09:35:10.330Z,6.70
2017-11-17T09:37:39.135Z,6.70
2017-11-17T09:40:07.991Z,6.70
2017-11-17T09:42:37.559Z,6.70
2017-11-17T09:45:07.196Z,6.70
2017-11-17T09:47:36.011Z,6.70
2017-11-17T09:50:04.893Z,6.60
2017-11-17T09:52:33.709Z,6.70
2017-11-17T09:55:02.552Z,6.60
2017-11-17T09:57:31.372Z,6.60
2017-11-17T10:00:00.218Z,6.60
2017-11-17T10:02:30.674Z,6.50
2017-11-17T10:04:59.478Z,6.50
2017-11-17T10:07:28.327Z,6.50
2017-11-17T10:09:59.664Z,6.60
2017-11-17T10:12:29.539Z,6.50
2017-11-17T10:14:58.384Z,6.50
2017-11-17T10:17:27.956Z,6.60
2017-11-17T10:19:56.889Z,6.60
2017-11-17T10:22:25.716Z,6.60
2017-11-17T10:24:54.559Z,6.60
2017-11-17T10:27:24.121Z,6.60
2017-11-17T10:29:52.983Z,6.60
2017-11-17T10:32:22.538Z,6.60
2017-11-17T10:34:51.347Z,6.60
2017-11-17T10:37:20.998Z,6.70
2017-11-17T10:39:49.198Z,6.60
2017-11-17T10:42:18.017Z,6.70
2017-11-17T10:44:46.518Z,6.60
2017-11-17T10:47:15.376Z,6.70
2017-11-17T10:49:44.213Z,6.70
2017-11-17T10:52:13.062Z,6.70
2017-11-17T10:54:41.570Z,6.70
2017-11-17T10:57:11.148Z,6.70
2017-11-17T10:59:40.068Z,6.70
2017-11-17T11:02:09.640Z,6.70
2017-11-17T11:04:40.430Z,6.70
2017-11-17T11:07:09.220Z,6.70
2017-11-17T11:09:38.717Z,6.80
2017-11-17T11:12:08.283Z,6.80
2017-11-17T11:14:37.085Z,6.80
2017-11-17T11:17:06.720Z,6.80
2017-11-17T11:19:35.521Z,6.80
2017-11-17T11:22:04.056Z,6.90
2017-11-17T11:24:32.850Z,6.90
2017-11-17T11:27:01.701Z,6.90
2017-11-17T11:29:30.723Z,7.00
2017-11-17T11:31:59.550Z,7.00
2017-11-17T11:34:29.158Z,7.10
2017-11-17T11:36:58.755Z,7.20
2017-11-17T11:39:28.335Z,7.20
2017-11-17T11:41:57.167Z,7.10
2017-11-17T11:44:26.775Z,7.20
2017-11-17T11:46:56.343Z,7.20
2017-11-17T11:49:25.137Z,7.20
2017-11-17T11:51:53.944Z,7.30
2017-11-17T11:54:22.769Z,7.30
2017-11-17T11:56:51.643Z,7.30
2017-11-17T11:59:21.200Z,7.40
2017-11-17T12:01:50.066Z,7.40
2017-11-17T12:04:18.867Z,7.50
2017-11-17T12:06:47.741Z,7.60
2017-11-17T12:09:17.466Z,7.60
2017-11-17T12:11:46.258Z,7.60
2017-11-17T12:14:15.111Z,7.70
2017-11-17T12:16:44.687Z,7.70
2017-11-17T12:19:13.524Z,7.70
2017-11-17T12:21:42.323Z,7.70
2017-11-17T12:24:11.184Z,7.70
2017-11-17T12:26:40.742Z,7.70
2017-11-17T12:29:09.420Z,7.70
2017-11-17T12:31:38.230Z,7.70
2017-11-17T12:34:07.027Z,7.70
2017-11-17T12:36:35.879Z,7.70
2017-11-17T12:39:04.066Z,7.80
2017-11-17T12:41:32.930Z,7.80
2017-11-17T12:44:02.492Z,7.80
2017-11-17T12:46:32.678Z,7.80
2017-11-17T12:49:01.482Z,7.80
2017-11-17T12:51:30.896Z,7.80
2017-11-17T12:53:59.749Z,7.70
2017-11-17T12:56:28.547Z,7.80
2017-11-17T12:58:57.420Z,7.80
2017-11-17T13:01:26.982Z,7.70
2017-11-17T13:03:55.552Z,7.70
2017-11-17T13:06:24.379Z,7.70
2017-11-17T13:08:53.458Z,7.80
2017-11-17T13:11:22.299Z,7.90
2017-11-17T13:13:51.101Z,7.90
2017-11-17T13:16:19.956Z,7.90
2017-11-17T13:18:49.520Z,8.10
2017-11-17T13:21:18.362Z,8.10
2017-11-17T13:23:47.927Z,8.20
2017-11-17T13:26:16.783Z,8.20
2017-11-17T13:28:45.587Z,8.20
2017-11-17T13:31:15.036Z,8.20
2017-11-17T13:33:44.665Z,8.30
2017-11-17T13:36:13.480Z,8.30
2017-11-17T13:38:42.334Z,8.30
2017-11-17T13:41:11.128Z,8.30
2017-11-17T13:43:40.750Z,8.30
2017-11-17T13:46:09.551Z,8.30
2017-11-17T13:48:38.435Z,8.30
2017-11-17T13:51:07.398Z,8.20
2017-11-17T13:53:36.967Z,8.20
2017-11-17T13:56:05.796Z,8.20
2017-11-17T13:58:34.591Z,8.10
2017-11-17T14:01:03.392Z,8.00
2017-11-17T14:03:32.968Z,8.00
2017-11-17T14:06:01.653Z,8.00
2017-11-17T14:08:30.514Z,8.00
2017-11-17T14:10:59.319Z,8.00
2017-11-17T14:13:28.148Z,7.90
2017-11-17T14:15:56.960Z,7.90
2017-11-17T14:18:25.494Z,7.80
2017-11-17T14:20:54.299Z,7.80
2017-11-17T14:23:23.156Z,7.70
2017-11-17T14:25:51.956Z,7.70
2017-11-17T14:28:20.819Z,7.70
2017-11-17T14:30:49.634Z,7.60
2017-11-17T14:33:18.562Z,7.60
2017-11-17T14:35:47.092Z,7.50
2017-11-17T14:38:15.970Z,7.50
2017-11-17T14:40:44.831Z,7.60
2017-11-17T14:43:13.625Z,7.50
2017-11-17T14:45:43.232Z,7.40
2017-11-17T14:48:12.800Z,7.40
2017-11-17T14:50:41.644Z,7.40
2017-11-17T14:53:10.464Z,7.40
2017-11-17T14:55:39.255Z,7.40
2017-11-17T14:58:07.986Z,7.30
2017-11-17T15:00:36.350Z,7.30
2017-11-17T15:03:05.206Z,7.40
2017-11-17T15:05:34.040Z,7.40
2017-11-17T15:08:03.164Z,7.30
2017-11-17T15:10:32.767Z,7.30
2017-11-17T15:13:01.790Z,7.30
2017-11-17T15:15:30.631Z,7.30
2017-11-17T15:17:59.454Z,7.30
2017-11-17T15:20:29.044Z,7.20
2017-11-17T15:22:58.310Z,7.20
2017-11-17T15:25:27.175Z,7.10
2017-11-17T15:27:56.296Z,7.20
2017-11-17T15:30:25.926Z,7.10
2017-11-17T15:32:54.734Z,7.10
2017-11-17T15:35:23.583Z,7.10
2017-11-17T15:37:52.378Z,7.10
2017-11-17T15:40:20.910Z,7.10
2017-11-17T15:42:50.656Z,7.00
2017-11-17T15:45:19.477Z,7.00
2017-11-17T15:47:48.345Z,6.90
2017-11-17T15:50:17.156Z,6.90
2017-11-17T15:52:46.762Z,6.80
2017-11-17T15:55:15.614Z,6.80
2017-11-17T15:57:44.463Z,6.80
2017-11-17T16:00:13.418Z,6.60
2017-11-17T16:02:44.449Z,6.60
2017-11-17T16:05:13.303Z,6.60
2017-11-17T16:07:42.909Z,6.50
2017-11-17T16:10:12.575Z,6.40
2017-11-17T16:12:41.398Z,6.40
2017-11-17T16:15:11.061Z,6.40
2017-11-17T16:17:39.895Z,6.40
2017-11-17T16:20:08.444Z,6.40
2017-11-17T16:22:38.047Z,6.30
2017-11-17T16:25:06.883Z,6.30
2017-11-17T16:27:36.629Z,6.20
2017-11-17T16:30:04.824Z,6.20
2017-11-17T16:32:33.698Z,6.20
2017-11-17T16:35:02.513Z,6.10
2017-11-17T16:37:31.377Z,6.10
2017-11-17T16:40:00.195Z,6.10
2017-11-17T16:42:28.694Z,6.00
2017-11-17T16:44:57.641Z,6.00
2017-11-17T16:47:26.166Z,6.00
2017-11-17T16:49:55.018Z,5.90
2017-11-17T16:52:23.519Z,5.90
2017-11-17T16:54:52.375Z,5.90
2017-11-17T16:57:21.196Z,5.80
2017-11-17T16:59:50.005Z,5.80
2017-11-17T17:02:18.838Z,5.70
2017-11-17T17:04:48.408Z,5.60
2017-11-17T17:07:17.311Z,5.60
2017-11-17T17:09:46.231Z,5.60
2017-11-17T17:12:15.579Z,5.60
2017-11-17T17:14:44.428Z,5.60
2017-11-17T17:17:13.264Z,5.60
2017-11-17T17:19:42.083Z,5.60
2017-11-17T17:22:10.900Z,5.60
2017-11-17T17:24:39.976Z,5.50
2017-11-17T17:27:08.783Z,5.40
2017-11-17T17:29:37.656Z,5.40
2017-11-17T17:32:07.236Z,5.30
2017-11-17T17:34:36.090Z,5.30
2017-11-17T17:37:04.918Z,5.30
2017-11-17T17:39:33.751Z,5.30
2017-11-17T17:42:03.347Z,5.20
2017-11-17T17:44:32.150Z,5.20
2017-11-17T17:47:01.722Z,5.10
2017-11-17T17:49:30.522Z,5.10
2017-11-17T17:51:59.380Z,5.10
2017-11-17T17:54:28.215Z,5.00
2017-11-17T17:56:57.840Z,4.90
2017-11-17T17:59:27.406Z,4.80
2017-11-17T18:01:55.655Z,4.80
2017-11-17T18:04:23.929Z,4.90
2017-11-17T18:06:52.816Z,4.80
2017-11-17T18:09:21.658Z,4.80
2017-11-17T18:11:50.487Z,4.80
2017-11-17T18:14:19.326Z,4.80
2017-11-17T18:16:48.132Z,4.80
2017-11-17T18:19:16.932Z,4.70
2017-11-17T18:21:46.560Z,4.60
2017-11-17T18:24:15.346Z,4.60
2017-11-17T18:26:45.481Z,4.50
2017-11-17T18:29:14.282Z,4.50
2017-11-17T18:31:43.138Z,4.50
2017-11-17T18:34:12.700Z,4.40
2017-11-17T18:36:41.546Z,4.40
2017-11-17T18:39:10.563Z,4.40
2017-11-17T18:41:39.423Z,4.30
2017-11-17T18:44:08.994Z,4.30
2017-11-17T18:46:37.816Z,4.30
2017-11-17T18:49:07.394Z,4.30
2017-11-17T18:51:36.210Z,4.30
2017-11-17T18:54:05.856Z,4.20
2017-11-17T18:56:34.811Z,4.20
2017-11-17T18:59:04.258Z,3.90
2017-11-17T19:01:33.308Z,3.90
2017-11-17T19:04:02.276Z,4.00
2017-11-17T19:06:33.154Z,4.00
2017-11-17T19:09:02.724Z,4.10
2017-11-17T19:11:31.868Z,4.10
2017-11-17T19:14:00.833Z,4.10
2017-11-17T19:16:29.836Z,4.10
2017-11-17T19:18:58.834Z,4.00
2017-11-17T19:21:28.398Z,4.00
2017-11-17T19:23:58.167Z,4.00
2017-11-17T19:26:27.217Z,4.10
2017-11-17T19:28:56.031Z,4.00
2017-11-17T19:31:24.818Z,4.00
2017-11-17T19:33:53.667Z,4.00
2017-11-17T19:36:22.467Z,4.00
2017-11-17T19:38:51.278Z,4.00
2017-11-17T19:41:20.124Z,4.00
2017-11-17T19:43:48.944Z,4.00
2017-11-17T19:46:17.796Z,3.90
2017-11-17T19:48:46.598Z,3.90
2017-11-17T19:51:15.391Z,3.90
2017-11-17T19:53:44.234Z,3.90
2017-11-17T19:56:13.794Z,3.90
2017-11-17T19:58:42.649Z,3.80
2017-11-17T20:01:11.460Z,3.90
2017-11-17T20:03:40.267Z,3.80
2017-11-17T20:06:09.123Z,3.80
2017-11-17T20:08:37.927Z,3.80
2017-11-17T20:11:06.762Z,3.80
2017-11-17T20:13:35.571Z,3.80
2017-11-17T20:16:04.439Z,3.70
2017-11-17T20:18:33.239Z,3.70
2017-11-17T20:21:02.052Z,3.70
2017-11-17T20:23:31.670Z,3.70
2017-11-17T20:26:01.275Z,3.50
2017-11-17T20:28:30.076Z,3.50
2017-11-17T20:30:58.869Z,3.50
2017-11-17T20:33:27.725Z,3.40
2017-11-17T20:35:56.527Z,3.30
2017-11-17T20:38:26.123Z,3.10
2017-11-17T20:40:54.928Z,3.10
2017-11-17T20:43:25.212Z,3.10
2017-11-17T20:45:54.017Z,3.10
2017-11-17T20:48:22.815Z,3.10
2017-11-17T20:50:52.423Z,3.10
2017-11-17T20:53:21.996Z,3.10
2017-11-17T20:55:50.874Z,3.10
2017-11-17T20:58:19.668Z,3.10
2017-11-17T21:00:49.288Z,3.10
2017-11-17T21:03:18.137Z,3.10
2017-11-17T21:05:46.950Z,3.00
2017-11-17T21:08:15.790Z,3.10
2017-11-17T21:10:44.586Z,3.00
2017-11-17T21:13:13.378Z,3.00
2017-11-17T21:15:42.987Z,3.10
2017-11-17T21:18:11.815Z,3.10
2017-11-17T21:20:40.782Z,2.90
2017-11-17T21:23:09.608Z,2.90
2017-11-17T21:25:38.449Z,2.80
2017-11-17T21:28:08.019Z,2.80
2017-11-17T21:30:36.829Z,2.80
2017-11-17T21:33:06.201Z,2.80
2017-11-17T21:35:35.958Z,2.80
2017-11-17T21:38:05.575Z,2.80
2017-11-17T21:40:35.147Z,2.70
2017-11-17T21:43:03.955Z,2.70
2017-11-17T21:45:32.813Z,2.70
2017-11-17T21:48:01.612Z,2.70
2017-11-17T21:50:30.499Z,2.70
2017-11-17T21:52:59.307Z,2.60
2017-11-17T21:55:28.145Z,2.60
2017-11-17T21:57:56.939Z,2.50
2017-11-17T22:00:25.738Z,2.50
2017-11-17T22:02:54.588Z,2.50
2017-11-17T22:05:24.168Z,2.50
2017-11-17T22:07:52.735Z,2.40
2017-11-17T22:10:21.537Z,2.40
2017-11-17T22:12:50.728Z,2.40
2017-11-17T22:15:19.534Z,2.40
2017-11-17T22:17:48.353Z,2.40
2017-11-17T22:20:21.593Z,2.30
2017-11-17T22:22:50.402Z,2.30
2017-11-17T22:25:19.210Z,2.30
2017-11-17T22:27:48.015Z,2.30
2017-11-17T22:30:17.626Z,2.20
2017-11-17T22:32:47.227Z,2.30
2017-11-17T22:35:16.843Z,2.20
2017-11-17T22:37:46.418Z,2.20
2017-11-17T22:40:15.215Z,2.20
2017-11-17T22:42:44.066Z,2.10
2017-11-17T22:45:12.871Z,2.20
2017-11-17T22:47:41.719Z,2.10
2017-11-17T22:50:11.280Z,2.00
2017-11-17T22:52:40.117Z,2.00
2017-11-17T22:55:09.679Z,1.90
2017-11-17T22:57:38.484Z,1.90
2017-11-17T23:00:07.300Z,1.90
2017-11-17T23:02:36.866Z,1.90
2017-11-17T23:05:05.707Z,1.90
2017-11-17T23:07:34.511Z,1.90
2017-11-17T23:10:03.366Z,1.80
2017-11-17T23:12:32.940Z,1.80
2017-11-17T23:15:01.752Z,1.70
2017-11-17T23:17:30.611Z,1.80
2017-11-17T23:19:58.804Z,1.70
2017-11-17T23:22:27.653Z,1.70
2017-11-17T23:24:56.463Z,1.70
2017-11-17T23:27:25.265Z,1.70
2017-11-17T23:29:54.154Z,1.60
2017-11-17T23:32:23.798Z,1.60
2017-11-17T23:34:53.421Z,1.60
2017-11-17T23:37:23.025Z,1.30
2017-11-17T23:39:52.638Z,1.30
2017-11-17T23:42:21.448Z,1.40
2017-11-17T23:44:50.255Z,1.40
2017-11-17T23:47:19.115Z,1.50
2017-11-17T23:49:48.706Z,1.50
2017-11-17T23:52:17.247Z,1.50
2017-11-17T23:54:45.427Z,1.40
2017-11-17T23:57:14.987Z,1.40
2017-11-17T23:59:43.831Z,1.40
